createdAt,value
2018-07-10T00:01:22.616Z,97951.10
2018-07-10T00:04:13.097Z,97945.92
2018-07-10T00:07:24.708Z,97935.37
2018-07-10T00:12:07.964Z,97934.08
2018-07-10T00:14:37.202Z,97938.30
2018-07-10T00:17:06.458Z,97934.55
2018-07-10T00:19:35.719Z,97935.08
2018-07-10T00:22:04.994Z,97933.95
2018-07-10T00:24:34.354Z,97933.46
2018-07-10T00:27:03.619Z,97936.53
2018-07-10T00:29:32.938Z,97921.21
2018-07-10T00:32:02.246Z,97935.17
2018-07-10T00:34:31.551Z,97935.52
2018-07-10T00:37:00.908Z,97933.72
2018-07-10T00:39:30.221Z,97937.28
2018-07-10T00:41:59.477Z,97938.30
2018-07-10T00:44:28.723Z,97934.11
2018-07-10T00:46:57.947Z,97934.39
2018-07-10T00:49:27.243Z,97931.75
2018-07-10T00:51:56.250Z,97931.97
2018-07-10T00:54:25.265Z,97927.44
2018-07-10T00:56:54.568Z,97925.23
2018-07-10T00:59:23.888Z,97921.83
2018-07-10T01:01:54.097Z,97922.41
2018-07-10T01:04:23.403Z,97924.08
2018-07-10T01:06:52.647Z,97919.45
2018-07-10T01:09:21.906Z,97918.44
2018-07-10T01:11:51.159Z,97915.20
2018-07-10T01:14:20.416Z,97909.02
2018-07-10T01:16:49.683Z,97905.29
2018-07-10T01:19:18.945Z,97905.09
2018-07-10T01:21:49.222Z,97908.96
2018-07-10T01:24:19.386Z,97907.44
2018-07-10T01:26:50.524Z,97909.81
2018-07-10T01:29:25.387Z,97908.02
2018-07-10T01:31:55.069Z,97904.53
2018-07-10T01:34:24.467Z,97910.47
2018-07-10T01:36:54.866Z,97908.05
2018-07-10T01:39:24.158Z,97905.93
2018-07-10T01:41:53.461Z,97907.55
2018-07-10T01:44:22.721Z,97895.48
2018-07-10T01:46:51.995Z,97904.10
2018-07-10T01:49:21.018Z,97906.84
2018-07-10T01:51:50.302Z,97906.08
2018-07-10T01:54:19.544Z,97904.50
2018-07-10T01:56:48.887Z,97897.78
2018-07-10T01:59:18.142Z,97897.82
2018-07-10T02:01:47.402Z,97893.48
2018-07-10T02:04:16.660Z,97888.94
2018-07-10T02:06:45.947Z,97888.49
2018-07-10T02:09:15.211Z,97889.88
2018-07-10T02:11:44.479Z,97877.86
2018-07-10T02:14:13.708Z,97879.75
2018-07-10T02:16:42.990Z,97878.98
2018-07-10T02:19:12.867Z,97869.27
2018-07-10T02:21:41.890Z,97873.57
2018-07-10T02:24:11.347Z,97870.66
2018-07-10T02:26:40.607Z,97866.38
2018-07-10T02:29:09.896Z,97866.38
2018-07-10T02:31:39.142Z,97869.89
2018-07-10T02:34:08.382Z,97858.63
2018-07-10T02:36:37.820Z,97859.70
2018-07-10T02:39:07.093Z,97855.95
2018-07-10T02:41:36.422Z,97855.41
2018-07-10T02:44:06.301Z,97854.59
2018-07-10T02:46:37.398Z,97851.11
2018-07-10T02:49:18.732Z,97848.95
2018-07-10T02:52:19.469Z,97844.39
2018-07-10T02:54:48.755Z,97841.42
2018-07-10T02:57:18.043Z,97841.16
2018-07-10T02:59:47.727Z,97838.20
2018-07-10T03:02:24.102Z,97839.00
2018-07-10T03:05:05.492Z,97837.66
2018-07-10T03:07:36.801Z,97840.62
2018-07-10T03:10:06.100Z,97836.13
2018-07-10T03:12:37.735Z,97845.00
2018-07-10T03:15:11.666Z,97849.34
2018-07-10T03:17:41.106Z,97845.63
2018-07-10T03:20:10.405Z,97847.51
2018-07-10T03:22:39.772Z,97846.47
2018-07-10T03:25:09.691Z,97853.91
2018-07-10T03:27:38.864Z,97846.12
2018-07-10T03:30:08.057Z,97848.23
2018-07-10T03:32:37.293Z,97853.38
2018-07-10T03:35:06.606Z,97855.56
2018-07-10T03:37:35.858Z,97855.56
2018-07-10T03:40:05.143Z,97855.03
2018-07-10T03:42:34.419Z,97857.41
2018-07-10T03:45:03.743Z,97853.07
2018-07-10T03:47:33.077Z,97853.30
2018-07-10T03:50:02.366Z,97856.80
2018-07-10T03:52:34.316Z,97851.95
2018-07-10T03:55:12.838Z,97851.91
2018-07-10T03:57:42.257Z,97850.80
2018-07-10T04:00:14.414Z,97850.79
2018-07-10T04:02:46.478Z,97840.84
2018-07-10T04:05:16.005Z,97839.73
2018-07-10T04:07:45.947Z,97844.56
2018-07-10T04:10:18.815Z,97847.52
2018-07-10T04:12:50.428Z,97852.31
2018-07-10T04:15:19.755Z,97843.72
2018-07-10T04:18:03.855Z,97850.08
2018-07-10T04:20:46.678Z,97840.89
2018-07-10T04:23:16.299Z,97845.64
2018-07-10T04:25:52.199Z,97839.66
2018-07-10T04:28:30.762Z,97837.70
2018-07-10T04:31:24.464Z,97838.45
2018-07-10T04:33:53.487Z,97841.81
2018-07-10T04:36:22.765Z,97845.14
2018-07-10T04:38:56.759Z,97843.97
2018-07-10T04:41:29.340Z,97840.41
2018-07-10T04:44:13.317Z,97839.81
2018-07-10T04:46:47.527Z,97837.33
2018-07-10T04:49:30.474Z,97845.88
2018-07-10T04:52:17.596Z,97840.17
2018-07-10T04:54:56.056Z,97832.32
2018-07-10T04:57:35.149Z,97839.03
2018-07-10T05:00:05.970Z,97832.42
2018-07-10T05:02:35.680Z,97831.56
2018-07-10T05:05:04.970Z,97831.30
2018-07-10T05:07:34.013Z,97838.45
2018-07-10T05:10:03.356Z,97833.04
2018-07-10T05:12:32.718Z,97835.30
2018-07-10T05:15:04.240Z,97829.30
2018-07-10T05:17:33.561Z,97827.53
2018-07-10T05:20:02.896Z,97829.84
2018-07-10T05:22:32.146Z,97831.11
2018-07-10T05:25:01.475Z,97830.73
2018-07-10T05:27:30.716Z,97834.41
2018-07-10T05:30:00.032Z,97831.02
2018-07-10T05:32:32.526Z,97833.95
2018-07-10T05:35:03.060Z,97839.26
2018-07-10T05:37:35.242Z,97831.56
2018-07-10T05:40:09.094Z,97833.23
2018-07-10T05:42:46.103Z,97838.69
2018-07-10T05:45:20.162Z,97834.47
2018-07-10T05:47:55.440Z,97835.80
2018-07-10T05:50:24.912Z,97835.80
2018-07-10T05:52:54.260Z,97832.36
2018-07-10T05:55:27.590Z,97834.72
2018-07-10T05:57:57.628Z,97835.09
2018-07-10T06:00:27.928Z,97831.97
2018-07-10T06:02:57.231Z,97839.48
2018-07-10T06:05:27.799Z,97829.06
2018-07-10T06:07:58.117Z,97834.42
2018-07-10T06:10:27.408Z,97833.59
2018-07-10T06:12:59.555Z,97836.67
2018-07-10T06:15:32.614Z,97838.21
2018-07-10T06:18:01.844Z,97836.56
2018-07-10T06:20:31.311Z,97838.09
2018-07-10T06:23:00.631Z,97832.09
2018-07-10T06:25:35.402Z,97828.65
2018-07-10T06:28:15.865Z,97829.58
2018-07-10T06:30:45.175Z,97835.13
2018-07-10T06:33:25.391Z,97833.39
2018-07-10T06:36:36.843Z,97834.77
2018-07-10T06:39:11.912Z,97824.58
2018-07-10T06:41:52.059Z,97828.55
2018-07-10T06:44:22.043Z,97828.98
2018-07-10T06:46:59.206Z,97828.04
2018-07-10T06:49:35.484Z,97821.09
2018-07-10T06:52:09.836Z,97833.59
2018-07-10T06:54:55.959Z,97832.48
2018-07-10T06:57:31.655Z,97823.67
2018-07-10T07:00:07.488Z,97827.00
2018-07-10T07:02:37.646Z,97828.23
2018-07-10T07:05:07.441Z,97833.00
2018-07-10T07:07:37.878Z,97831.05
2018-07-10T07:10:09.182Z,97839.74
2018-07-10T07:12:39.519Z,97835.18
2018-07-10T07:15:12.042Z,97835.60
2018-07-10T07:17:43.502Z,97833.24
2018-07-10T07:20:12.779Z,97839.95
2018-07-10T07:22:42.073Z,97841.38
2018-07-10T07:25:11.439Z,97838.16
2018-07-10T07:27:40.731Z,97836.63
2018-07-10T07:30:09.975Z,97834.97
2018-07-10T07:32:39.265Z,97839.16
2018-07-10T07:35:08.592Z,97839.86
2018-07-10T07:37:40.050Z,97839.34
2018-07-10T07:40:10.775Z,97840.14
2018-07-10T07:42:40.685Z,97833.16
2018-07-10T07:45:10.179Z,97837.59
2018-07-10T07:47:39.482Z,97832.00
2018-07-10T07:50:08.570Z,97831.66
2018-07-10T07:52:38.202Z,97830.92
2018-07-10T07:55:07.347Z,97823.28
2018-07-10T07:57:36.643Z,97822.45
2018-07-10T08:00:05.938Z,97817.08
2018-07-10T08:02:35.230Z,97818.70
2018-07-10T08:05:04.606Z,97812.67
2018-07-10T08:07:33.969Z,97814.63
2018-07-10T08:10:03.290Z,97818.27
2018-07-10T08:12:32.828Z,97811.42
2018-07-10T08:15:04.027Z,97803.83
2018-07-10T08:17:36.477Z,97795.93
2018-07-10T08:20:06.923Z,97803.02
2018-07-10T08:22:36.110Z,97803.12
2018-07-10T08:25:06.263Z,97806.69
2018-07-10T08:27:37.511Z,97804.91
2018-07-10T08:30:07.575Z,97799.00
2018-07-10T08:32:37.731Z,97807.48
2018-07-10T08:35:07.078Z,97809.66
2018-07-10T08:37:36.389Z,97813.03
2018-07-10T08:40:05.746Z,97798.27
2018-07-10T08:42:35.115Z,97800.25
2018-07-10T08:45:05.159Z,97797.77
2018-07-10T08:47:35.159Z,97794.84
2018-07-10T08:50:04.581Z,97794.95
2018-07-10T08:52:34.023Z,97788.88
2018-07-10T08:55:03.316Z,97796.84
2018-07-10T08:57:32.633Z,97790.82
2018-07-10T09:00:02.544Z,97787.45
2018-07-10T09:05:06.030Z,97787.25
2018-07-10T09:07:35.425Z,97779.93
2018-07-10T09:10:04.701Z,97780.48
2018-07-10T09:12:34.045Z,97782.95
2018-07-10T09:15:03.424Z,97795.45
2018-07-10T09:17:32.712Z,97800.47
2018-07-10T09:20:04.081Z,97802.30
2018-07-10T09:22:33.415Z,97800.20
2018-07-10T09:25:05.627Z,97809.18
2018-07-10T09:27:34.954Z,97803.44
2018-07-10T09:30:04.272Z,97807.89
2018-07-10T09:32:38.665Z,97805.80
2018-07-10T09:35:07.914Z,97809.14
2018-07-10T09:37:42.568Z,97796.54
2018-07-10T09:40:19.029Z,97803.48
2018-07-10T09:42:59.021Z,97802.20
2018-07-10T09:45:32.891Z,97802.30
2018-07-10T09:48:02.854Z,97811.95
2018-07-10T09:50:32.159Z,97807.64
2018-07-10T09:53:03.154Z,97799.09
2018-07-10T09:55:32.592Z,97800.19
2018-07-10T09:58:02.507Z,97792.93
2018-07-10T10:00:37.737Z,97794.06
2018-07-10T10:03:06.780Z,97787.09
2018-07-10T10:05:43.415Z,97788.86
2018-07-10T10:08:13.043Z,97796.12
2018-07-10T10:10:42.278Z,97782.69
2018-07-10T10:13:11.559Z,97779.84
2018-07-10T10:15:40.817Z,97777.18
2018-07-10T10:18:10.432Z,97779.97
2018-07-10T10:20:42.153Z,97791.06
2018-07-10T10:23:13.405Z,97796.32
2018-07-10T10:25:48.676Z,97790.17
2018-07-10T10:28:18.945Z,97800.36
2018-07-10T10:30:48.316Z,97792.97
2018-07-10T10:33:17.604Z,97800.86
2018-07-10T10:35:46.744Z,97799.96
2018-07-10T10:38:16.959Z,97798.39
2018-07-10T10:40:48.263Z,97798.22
2018-07-10T10:43:17.538Z,97799.95
2018-07-10T10:45:46.899Z,97792.38
2018-07-10T10:48:17.838Z,97794.44
2018-07-10T10:50:51.374Z,97801.70
2018-07-10T10:53:21.303Z,97799.95
2018-07-10T10:55:50.662Z,97798.09
2018-07-10T10:58:20.991Z,97795.91
2018-07-10T11:00:50.473Z,97802.30
2018-07-10T11:03:20.567Z,97802.14
2018-07-10T11:05:49.663Z,97810.77
2018-07-10T11:08:20.637Z,97803.94
2018-07-10T11:10:50.526Z,97811.06
2018-07-10T11:13:20.771Z,97814.77
2018-07-10T11:15:50.788Z,97809.92
2018-07-10T11:18:31.658Z,97806.93
2018-07-10T11:21:13.911Z,97820.02
2018-07-10T11:23:53.435Z,97822.66
2018-07-10T11:26:58.672Z,97815.58
2018-07-10T11:29:27.880Z,97817.39
2018-07-10T11:31:57.163Z,97822.23
2018-07-10T11:34:26.491Z,97827.70
2018-07-10T11:36:55.767Z,97824.27
2018-07-10T11:39:25.098Z,97825.28
2018-07-10T11:41:54.826Z,97826.33
2018-07-10T11:44:23.865Z,97820.44
2018-07-10T11:46:53.126Z,97823.27
2018-07-10T11:49:22.515Z,97819.67
2018-07-10T11:51:51.806Z,97815.73
2018-07-10T11:54:21.094Z,97812.19
2018-07-10T11:56:50.429Z,97820.36
2018-07-10T11:59:19.690Z,97811.46
2018-07-10T12:01:49.029Z,97805.70
2018-07-10T12:04:18.265Z,97795.95
2018-07-10T12:06:50.225Z,97801.50
2018-07-10T12:09:19.295Z,97803.55
2018-07-10T12:11:48.655Z,97803.66
2018-07-10T12:14:17.954Z,97791.30
2018-07-10T12:16:47.216Z,97791.98
2018-07-10T12:19:17.059Z,97791.39
2018-07-10T12:21:46.636Z,97799.89
2018-07-10T12:24:16.193Z,97787.00
2018-07-10T12:26:45.515Z,97789.20
2018-07-10T12:29:14.816Z,97780.82
2018-07-10T12:31:44.508Z,97783.89
2018-07-10T12:34:13.862Z,97776.55
2018-07-10T12:36:43.155Z,97766.32
2018-07-10T12:39:12.503Z,97758.69
2018-07-10T12:41:41.818Z,97768.19
2018-07-10T12:44:11.136Z,97770.52
2018-07-10T12:46:40.438Z,97778.77
2018-07-10T12:49:09.744Z,97781.20
2018-07-10T12:51:39.024Z,97781.98
2018-07-10T12:54:08.280Z,97784.77
2018-07-10T12:56:37.287Z,97781.92
2018-07-10T12:59:06.592Z,97776.79
2018-07-10T13:01:35.859Z,97771.53
2018-07-10T13:04:05.210Z,97764.23
2018-07-10T13:06:34.575Z,97763.92
2018-07-10T13:09:04.063Z,97769.83
2018-07-10T13:11:33.478Z,97757.56
2018-07-10T13:14:02.707Z,97757.45
2018-07-10T13:16:31.769Z,97752.89
2018-07-10T13:19:01.072Z,97751.38
2018-07-10T13:21:30.363Z,97742.14
2018-07-10T13:23:59.660Z,97740.23
2018-07-10T13:26:28.937Z,97748.81
2018-07-10T13:31:26.595Z,97749.09
2018-07-10T13:33:55.923Z,97744.86
2018-07-10T13:36:25.288Z,97742.53
2018-07-10T13:38:54.459Z,97738.90
2018-07-10T13:41:23.834Z,97733.76
2018-07-10T13:43:53.038Z,97735.52
2018-07-10T13:46:22.355Z,97737.08
2018-07-10T13:48:51.643Z,97730.47
2018-07-10T13:51:21.499Z,97733.59
2018-07-10T13:53:50.767Z,97736.53
2018-07-10T13:56:20.171Z,97732.98
2018-07-10T13:58:50.077Z,97735.19
2018-07-10T14:01:20.289Z,97732.50
2018-07-10T14:03:49.603Z,97735.63
2018-07-10T14:06:19.151Z,97739.69
2018-07-10T14:08:48.478Z,97740.27
2018-07-10T14:11:17.795Z,97733.45
2018-07-10T14:13:47.127Z,97741.03
2018-07-10T14:16:16.395Z,97746.16
2018-07-10T14:18:45.688Z,97749.34
2018-07-10T14:21:14.930Z,97735.98
2018-07-10T14:23:44.187Z,97742.70
2018-07-10T14:26:13.444Z,97745.41
2018-07-10T14:28:42.819Z,97740.78
2018-07-10T14:31:12.092Z,97749.88
2018-07-10T14:33:41.490Z,97741.65
2018-07-10T14:36:10.807Z,97736.77
2018-07-10T14:38:42.502Z,97740.51
2018-07-10T14:41:12.530Z,97739.00
2018-07-10T14:43:44.110Z,97738.13
2018-07-10T14:46:19.353Z,97734.52
2018-07-10T14:48:57.010Z,97729.30
2018-07-10T14:51:43.912Z,97734.13
2018-07-10T14:54:13.352Z,97732.77
2018-07-10T14:56:43.092Z,97728.17
2018-07-10T14:59:12.715Z,97738.13
2018-07-10T15:01:42.583Z,97726.87
2018-07-10T15:04:11.853Z,97728.49
2018-07-10T15:06:41.207Z,97734.14
2018-07-10T15:09:10.759Z,97732.23
2018-07-10T15:11:42.145Z,97733.84
2018-07-10T15:14:12.794Z,97737.87
2018-07-10T15:16:47.436Z,97741.66
2018-07-10T15:19:17.814Z,97728.50
2018-07-10T15:21:47.321Z,97728.41
2018-07-10T15:24:16.716Z,97726.03
2018-07-10T15:26:46.148Z,97720.50
2018-07-10T15:29:20.842Z,97719.63
2018-07-10T15:31:50.176Z,97721.51
2018-07-10T15:34:19.558Z,97720.14
2018-07-10T15:36:48.899Z,97716.19
2018-07-10T15:39:18.323Z,97725.38
2018-07-10T15:41:47.753Z,97714.17
2018-07-10T15:44:17.020Z,97710.25
2018-07-10T15:46:46.437Z,97709.36
2018-07-10T15:49:15.690Z,97708.98
2018-07-10T15:51:45.235Z,97705.50
2018-07-10T15:54:14.626Z,97695.28
2018-07-10T15:56:43.909Z,97694.25
2018-07-10T15:59:13.223Z,97692.92
2018-07-10T16:01:42.607Z,97694.61
2018-07-10T16:04:11.914Z,97702.26
2018-07-10T16:06:41.519Z,97698.61
2018-07-10T16:09:18.996Z,97699.41
2018-07-10T16:11:55.400Z,97683.24
2018-07-10T16:16:52.708Z,97691.34
2018-07-10T16:19:33.323Z,97692.39
2018-07-10T16:22:28.568Z,97691.66
2018-07-10T16:25:09.316Z,97691.30
2018-07-10T16:27:43.632Z,97694.34
2018-07-10T16:30:17.635Z,97695.83
2018-07-10T16:32:47.042Z,97694.20
2018-07-10T16:35:16.358Z,97697.56
2018-07-10T16:37:45.729Z,97691.17
2018-07-10T16:40:15.964Z,97695.41
2018-07-10T16:42:51.841Z,97695.91
2018-07-10T16:45:24.972Z,97692.72
2018-07-10T16:48:21.059Z,97694.45
2018-07-10T16:51:03.219Z,97701.80
2018-07-10T16:53:36.297Z,97699.11
2018-07-10T16:56:05.784Z,97699.78
2018-07-10T16:58:38.944Z,97705.88
2018-07-10T17:01:08.439Z,97707.22
2018-07-10T17:03:38.217Z,97700.80
2018-07-10T17:06:07.605Z,97704.16
2018-07-10T17:08:36.685Z,97694.66
2018-07-10T17:11:06.169Z,97701.64
2018-07-10T17:13:35.568Z,97702.68
2018-07-10T17:16:05.277Z,97702.39
2018-07-10T17:18:34.659Z,97707.47
2018-07-10T17:21:03.936Z,97700.08
2018-07-10T17:23:33.314Z,97711.42
2018-07-10T17:26:02.604Z,97704.94
2018-07-10T17:28:31.894Z,97708.22
2018-07-10T17:31:01.175Z,97703.22
2018-07-10T17:33:30.468Z,97705.66
2018-07-10T17:35:59.731Z,97697.38
2018-07-10T17:38:29.893Z,97708.14
2018-07-10T17:40:59.252Z,97704.17
2018-07-10T17:43:28.730Z,97706.06
2018-07-10T17:45:58.122Z,97701.98
2018-07-10T17:48:27.388Z,97709.54
2018-07-10T17:50:56.668Z,97705.34
2018-07-10T17:53:25.703Z,97713.89
2018-07-10T17:55:55.159Z,97719.53
2018-07-10T17:58:25.424Z,97724.65
2018-07-10T18:00:54.732Z,97715.60
2018-07-10T18:03:24.046Z,97720.13
2018-07-10T18:05:53.401Z,97715.86
2018-07-10T18:08:22.746Z,97731.92
2018-07-10T18:10:52.159Z,97731.34
2018-07-10T18:13:21.491Z,97732.06
2018-07-10T18:15:50.872Z,97729.14
2018-07-10T18:18:20.198Z,97723.21
2018-07-10T18:20:49.527Z,97728.07
2018-07-10T18:23:19.635Z,97734.69
2018-07-10T18:25:48.878Z,97732.26
2018-07-10T18:28:17.882Z,97733.23
2018-07-10T18:30:47.143Z,97731.19
2018-07-10T18:33:16.383Z,97734.34
2018-07-10T18:35:45.691Z,97736.22
2018-07-10T18:38:14.959Z,97741.56
2018-07-10T18:40:44.213Z,97737.87
2018-07-10T18:43:13.488Z,97745.44
2018-07-10T18:45:42.835Z,97742.09
2018-07-10T18:48:12.121Z,97745.63
2018-07-10T18:50:41.372Z,97748.53
2018-07-10T18:53:10.663Z,97752.52
2018-07-10T18:55:40.164Z,97747.58
2018-07-10T18:58:26.442Z,97750.77
2018-07-10T19:01:11.808Z,97749.23
2018-07-10T19:03:44.818Z,97748.81
2018-07-10T19:06:14.991Z,97753.40
2018-07-10T19:08:46.186Z,97753.79
2018-07-10T19:11:22.218Z,97751.79
2018-07-10T19:13:51.978Z,97749.84
2018-07-10T19:16:22.138Z,97756.22
2018-07-10T19:18:52.839Z,97756.22
2018-07-10T19:21:30.921Z,97752.98
2018-07-10T19:24:03.998Z,97756.56
2018-07-10T19:26:34.850Z,97759.38
2018-07-10T19:30:11.377Z,97756.31
2018-07-10T19:32:40.594Z,97761.56
2018-07-10T19:35:10.594Z,97761.03
2018-07-10T19:37:39.895Z,97765.47
2018-07-10T19:40:09.163Z,97768.20
2018-07-10T19:42:39.306Z,97764.71
2018-07-10T19:45:09.023Z,97765.46
2018-07-10T19:47:38.309Z,97769.34
2018-07-10T19:50:15.442Z,97770.78
2018-07-10T19:52:49.331Z,97766.58
2018-07-10T19:55:18.618Z,97771.78
2018-07-10T19:59:02.295Z,97770.00
2018-07-10T20:01:41.470Z,97771.61
2018-07-10T20:04:52.791Z,97778.41
2018-07-10T20:07:29.203Z,97779.84
2018-07-10T20:10:13.564Z,97774.27
2018-07-10T20:13:23.402Z,97774.23
2018-07-10T20:17:03.377Z,97776.95
2018-07-10T20:19:49.077Z,97773.07
2018-07-10T20:24:36.883Z,97777.20
2018-07-10T20:27:19.171Z,97779.79
2018-07-10T20:30:18.066Z,97775.80
2018-07-10T20:33:33.833Z,97785.80
2018-07-10T20:36:05.193Z,97780.75
2018-07-10T20:38:34.839Z,97786.67
2018-07-10T20:41:04.875Z,97787.20
2018-07-10T20:43:40.428Z,97786.98
2018-07-10T20:46:14.452Z,97790.98
2018-07-10T20:48:57.392Z,97783.73
2018-07-10T20:51:35.630Z,97790.09
2018-07-10T20:54:18.671Z,97789.83
2018-07-10T20:57:36.171Z,97793.23
2018-07-10T21:00:10.366Z,97796.16
2018-07-10T21:05:01.325Z,97786.95
2018-07-10T21:07:32.035Z,97784.53
2018-07-10T21:10:11.616Z,97790.73
2018-07-10T21:12:49.543Z,97787.76
2018-07-10T21:15:28.580Z,97782.63
2018-07-10T21:18:25.703Z,97789.07
2018-07-10T21:22:06.640Z,97786.89
2018-07-10T21:24:58.372Z,97784.98
2018-07-10T21:27:41.149Z,97784.68
2018-07-10T21:30:27.149Z,97777.67
2018-07-10T21:33:05.131Z,97779.81
2018-07-10T21:35:42.575Z,97773.97
2018-07-10T21:38:20.111Z,97773.27
2018-07-10T21:41:39.234Z,97777.62
2018-07-10T21:45:33.800Z,97765.66
2018-07-10T21:49:25.696Z,97779.62
2018-07-10T21:51:55.002Z,97769.78
2018-07-10T21:54:24.676Z,97770.66
2018-07-10T21:56:53.983Z,97777.91
2018-07-10T21:59:24.647Z,97776.80
2018-07-10T22:01:59.402Z,97775.53
2018-07-10T22:04:32.224Z,97769.89
2018-07-10T22:07:02.882Z,97769.38
2018-07-10T22:09:36.998Z,97769.92
2018-07-10T22:12:14.882Z,97765.59
2018-07-10T22:14:44.845Z,97762.16
2018-07-10T22:17:23.052Z,97758.95
2018-07-10T22:19:55.984Z,97759.00
2018-07-10T22:22:31.611Z,97764.12
2018-07-10T22:25:03.703Z,97762.45
2018-07-10T22:27:33.013Z,97763.55
2018-07-10T22:30:07.533Z,97763.87
2018-07-10T22:32:44.341Z,97760.91
2018-07-10T22:35:14.460Z,97758.20
2018-07-10T22:37:43.738Z,97756.62
2018-07-10T22:40:13.029Z,97752.87
2018-07-10T22:42:42.702Z,97747.52
2018-07-10T22:45:11.970Z,97748.59
2018-07-10T22:47:43.514Z,97751.52
2018-07-10T22:50:21.191Z,97756.64
2018-07-10T22:52:55.267Z,97756.91
2018-07-10T22:55:29.965Z,97752.63
2018-07-10T22:58:04.699Z,97751.58
2018-07-10T23:00:35.226Z,97758.02
2018-07-10T23:03:25.665Z,97754.81
2018-07-10T23:05:55.725Z,97756.14
2018-07-10T23:08:34.300Z,97751.86
2018-07-10T23:11:06.230Z,97754.84
2018-07-10T23:13:41.911Z,97745.20
2018-07-10T23:16:11.221Z,97744.13
2018-07-10T23:18:41.279Z,97746.02
2018-07-10T23:21:14.023Z,97739.60
2018-07-10T23:23:43.248Z,97738.80
2018-07-10T23:26:14.806Z,97732.91
2018-07-10T23:28:44.131Z,97740.16
2018-07-10T23:31:14.791Z,97733.72
2018-07-10T23:33:48.922Z,97724.88
2018-07-10T23:36:18.206Z,97723.28
2018-07-10T23:39:00.512Z,97726.48
2018-07-10T23:41:47.476Z,97723.02
2018-07-10T23:44:17.175Z,97723.55
2018-07-10T23:46:58.023Z,97724.63
2018-07-10T23:49:27.726Z,97725.41
2018-07-10T23:52:13.939Z,97723.03
2018-07-10T23:54:43.157Z,97724.09
2018-07-10T23:57:12.745Z,97721.97
2018-07-10T23:59:42.068Z,97725.97
